sensor_id;sensor_type;location;lat;lon;timestamp;pressure;altitude;pressure_sealevel;temperature;humidity
63582;BME280;49727;51.078;17.066;2022-09-20T00:06:54;100037.72;;;8.61;81.04
63582;BME280;49727;51.078;17.066;2022-09-20T00:21:54;100027.66;;;8.73;81.42
63582;BME280;49727;51.078;17.066;2022-09-20T00:36:55;100041.78;;;8.90;81.52
63582;BME280;49727;51.078;17.066;2022-09-20T00:51:59;100037.34;;;9.07;81.24
63582;BME280;49727;51.078;17.066;2022-09-20T01:07:02;100043.19;;;9.19;81.16
63582;BME280;49727;51.078;17.066;2022-09-20T01:22:08;100039.69;;;9.10;81.10
63582;BME280;49727;51.078;17.066;2022-09-20T01:37:18;100032.66;;;8.92;80.63
63582;BME280;49727;51.078;17.066;2022-09-20T02:07:55;100044.97;;;8.93;81.29
63582;BME280;49727;51.078;17.066;2022-09-20T02:38:28;100057.56;;;8.75;81.38
63582;BME280;49727;51.078;17.066;2022-09-20T03:09:05;100081.13;;;8.43;81.19
63582;BME280;49727;51.078;17.066;2022-09-20T03:24:35;100078.97;;;8.12;81.08
63582;BME280;49727;51.078;17.066;2022-09-20T03:39:44;100088.69;;;8.30;82.51
63582;BME280;49727;51.078;17.066;2022-09-20T04:10:17;100096.25;;;8.86;82.05
63582;BME280;49727;51.078;17.066;2022-09-20T04:25:34;100100.91;;;8.92;82.04
63582;BME280;49727;51.078;17.066;2022-09-20T04:56:20;100115.53;;;8.96;82.31
63582;BME280;49727;51.078;17.066;2022-09-20T06:12:54;100183.47;;;9.74;81.47
63582;BME280;49727;51.078;17.066;2022-09-20T06:42:59;100184.47;;;10.31;80.78
63582;BME280;49727;51.078;17.066;2022-09-20T06:58:00;100211.75;;;10.49;80.69
63582;BME280;49727;51.078;17.066;2022-09-20T07:13:01;100219.06;;;10.72;80.18
63582;BME280;49727;51.078;17.066;2022-09-20T07:28:01;100241.59;;;11.09;79.16
63582;BME280;49727;51.078;17.066;2022-09-20T07:43:02;100249.81;;;11.39;78.95
63582;BME280;49727;51.078;17.066;2022-09-20T07:58:02;100259.53;;;12.71;76.99
63582;BME280;49727;51.078;17.066;2022-09-20T08:13:03;100263.88;;;14.27;75.47
63582;BME280;49727;51.078;17.066;2022-09-20T08:28:03;100273.72;;;14.41;72.79
63582;BME280;49727;51.078;17.066;2022-09-20T08:43:05;100270.59;;;15.29;72.70
63582;BME280;49727;51.078;17.066;2022-09-20T08:58:10;100280.91;;;20.53;63.81
63582;BME280;49727;51.078;17.066;2022-09-20T09:14:06;100283.59;;;17.80;60.58
63582;BME280;49727;51.078;17.066;2022-09-20T09:28:39;100293.84;;;18.35;57.96
63582;BME280;49727;51.078;17.066;2022-09-20T09:43:39;100296.53;;;17.06;58.34
63582;BME280;49727;51.078;17.066;2022-09-20T09:59:19;100295.38;;;17.92;58.35
63582;BME280;49727;51.078;17.066;2022-09-20T11:15:03;100314.41;;;39.52;18.96
63582;BME280;49727;51.078;17.066;2022-09-20T11:30:10;100299.03;;;44.89;15.04
63582;BME280;49727;51.078;17.066;2022-09-20T11:45:14;100293.59;;;32.24;23.55
63582;BME280;49727;51.078;17.066;2022-09-20T12:00:14;100299.25;;;28.70;26.36
63582;BME280;49727;51.078;17.066;2022-09-20T12:15:25;100329.38;;;23.21;33.76
63582;BME280;49727;51.078;17.066;2022-09-20T12:30:26;100318.91;;;18.93;41.17
63582;BME280;49727;51.078;17.066;2022-09-20T12:45:29;100322.84;;;17.63;46.01
63582;BME280;49727;51.078;17.066;2022-09-20T13:15:47;100327.56;;;16.75;50.39
63582;BME280;49727;51.078;17.066;2022-09-20T13:30:49;100324.78;;;20.67;46.99
63582;BME280;49727;51.078;17.066;2022-09-20T13:45:52;100323.06;;;20.73;43.53
63582;BME280;49727;51.078;17.066;2022-09-20T14:00:56;100329.63;;;19.81;44.06
63582;BME280;49727;51.078;17.066;2022-09-20T14:15:57;100329.34;;;18.57;46.09
63582;BME280;49727;51.078;17.066;2022-09-20T14:31:12;100333.72;;;17.95;46.75
63582;BME280;49727;51.078;17.066;2022-09-20T14:46:15;100328.53;;;17.93;46.94
63582;BME280;49727;51.078;17.066;2022-09-20T15:01:23;100335.03;;;17.72;46.93
63582;BME280;49727;51.078;17.066;2022-09-20T15:16:26;100335.84;;;16.73;48.17
63582;BME280;49727;51.078;17.066;2022-09-20T15:31:27;100337.63;;;15.99;49.62
63582;BME280;49727;51.078;17.066;2022-09-20T15:46:28;100340.41;;;15.36;51.05
63582;BME280;49727;51.078;17.066;2022-09-20T16:01:31;100335.66;;;14.75;51.77
63582;BME280;49727;51.078;17.066;2022-09-20T16:16:33;100352.22;;;14.20;53.44
63582;BME280;49727;51.078;17.066;2022-09-20T16:31:41;100378.88;;;13.70;55.33
63582;BME280;49727;51.078;17.066;2022-09-20T16:46:41;100426.84;;;12.80;57.92
63582;BME280;49727;51.078;17.066;2022-09-20T17:01:44;100446.13;;;12.21;59.59
63582;BME280;49727;51.078;17.066;2022-09-20T17:16:45;100468.00;;;12.16;60.71
63582;BME280;49727;51.078;17.066;2022-09-20T17:31:50;100475.34;;;11.58;61.84
63582;BME280;49727;51.078;17.066;2022-09-20T17:46:51;100488.88;;;11.48;63.21
63582;BME280;49727;51.078;17.066;2022-09-20T18:01:53;100499.69;;;10.97;64.08
63582;BME280;49727;51.078;17.066;2022-09-20T18:16:56;100517.06;;;10.42;65.45
63582;BME280;49727;51.078;17.066;2022-09-20T18:31:58;100544.78;;;9.97;66.28
63582;BME280;49727;51.078;17.066;2022-09-20T18:47:01;100554.19;;;9.57;67.47
63582;BME280;49727;51.078;17.066;2022-09-20T19:33:00;100583.19;;;8.96;70.74
63582;BME280;49727;51.078;17.066;2022-09-20T20:03:12;100620.41;;;8.68;73.04
63582;BME280;49727;51.078;17.066;2022-09-20T20:18:31;100622.25;;;8.58;73.71
63582;BME280;49727;51.078;17.066;2022-09-20T20:33:32;100633.47;;;8.52;73.96
63582;BME280;49727;51.078;17.066;2022-09-20T20:48:33;100651.94;;;8.43;74.51
63582;BME280;49727;51.078;17.066;2022-09-20T21:03:34;100651.41;;;8.30;75.70
63582;BME280;49727;51.078;17.066;2022-09-20T21:18:34;100650.88;;;8.17;75.92
63582;BME280;49727;51.078;17.066;2022-09-20T21:33:37;100659.53;;;8.09;76.12
63582;BME280;49727;51.078;17.066;2022-09-20T21:48:38;100673.69;;;8.00;76.62
63582;BME280;49727;51.078;17.066;2022-09-20T22:03:49;100678.28;;;7.88;77.26
63582;BME280;49727;51.078;17.066;2022-09-20T22:18:51;100675.50;;;7.79;77.87
63582;BME280;49727;51.078;17.066;2022-09-20T22:33:54;100686.94;;;7.70;78.28
63582;BME280;49727;51.078;17.066;2022-09-20T22:48:54;100685.69;;;7.55;78.13
63582;BME280;49727;51.078;17.066;2022-09-20T23:04:03;100674.50;;;7.41;78.66
63582;BME280;49727;51.078;17.066;2022-09-20T23:19:05;100686.91;;;7.31;78.97
63582;BME280;49727;51.078;17.066;2022-09-20T23:34:07;100691.06;;;7.24;79.94
63582;BME280;49727;51.078;17.066;2022-09-20T23:49:08;100689.81;;;7.18;79.90
